SBCRSBCG

Guest
Details From SBCR - CORUMBA INTL
To SBCG - Campo Grande
Flight Number -
Tags generated
Created
Modified
Stats Distance 191 nm / 354 km
Max Altitude 13,400 ft / 4,084 m
Waypoints 5
Social Downloads 0
Likes 0
Share VATSIM

Download

Looking for another format? Having issues loading an existing format? Contact us
Advertisement - Login to hide

Notes

Basic altitude profile: - Ascent Rate: 2500ft/min - Ascent Speed: 250kts - Cruise Altitude: 35000ft - Cruise Speed: 420kts - Descent Rate: 1500ft/min - Descent Speed: 250kts Options: - Use NATs: yes - Use PACOTS: yes - Use low airways: yes - Use high airways: yes

Route

SBCR NEGRO A304 CGR SBCG

ID Type Via Altitude Latitude Longitude Leg Dist Tot Dist Heading (true) Name
O SBCR APT - 0 ft / 0 m -19.01193˚ -57.67305˚ - 0 nm - CORUMBA INTL
NEGRO FIX - 13,400 ft / 4,084 m -19.32550˚ -57.04000˚ 40 nm 40 nm 118° / 118° -
ATNAS FIX A304 (AWY-LO) 8,500 ft / 2,591 m -20.16783˚ -55.30400˚ 110 nm 150 nm 118° / 117° -
CGR VOR A304 (AWY-LO) 5,500 ft / 1,676 m -20.46883˚ -54.67033˚ 40 nm 190 nm 117° / 117° CAMPO GRANDE VOR-DME
O SBCG APT - 0 ft / 0 m -20.46867˚ -54.67250˚ 0 nm 191 nm 275° / 275° Campo Grande

Altitude Profile

Advertisement - Login to hide

Weather


0- 5 10 15 20 25 30 35+ Temperature / ° C

Clouds and Precipitation
Forecast for 2018-05-24 18:00 UTC. Updated 40 minutes ago

Ground ~20,000 ft ~40,000 ft Winds

SBCR

Details ICAO SBCR (CMG)
Name CORUMBA INTL
Region Brazil
Timezone America/Campo_Grande (UTC-4.0)
Stats Elevation 461 ft / 141 m (AMSL)
Location -19.011930° -57.673051°
Runways 1
Magnetic Variation 15.867° W

METAR

SBCR 241800Z 21008KT CAVOK 26/16 Q1018

Decode

TAF

TAF SBCR 240945Z 2412/2512 18006KT CAVOK TX30/2418Z TN18/2509Z RMK PEB

Decode

Departure Runways

ID Width Length Bearing (true) Bearing (mag) Surface Threshold Offset Overrun Length
09 148 ft / 45 m 6,567 ft / 2,002 m 74.62° 90.49° Asphalt 0 ft / 0 m 197 ft / 60 m
27 148 ft / 45 m 6,567 ft / 2,002 m 254.62° 270.49° Asphalt 0 ft / 0 m 197 ft / 60 m

SBCG

Details ICAO SBCG (CGR)
Name Campo Grande
Region Brazil
Timezone America/Campo_Grande (UTC-4.0)
Stats Elevation 1,833 ft / 559 m (AMSL)
Location -20.468666° -54.672500°
Runways 1
Magnetic Variation 17.603° W

METAR

SBCG 241800Z VRB02KT 9999 FEW025 28/11 Q1020

Decode

TAF

TAF SBCG 240945Z 2412/2512 11007KT CAVOK TX27/2418Z TN15/2509Z RMK PEB

Decode

Destination Runways

ID Width Length Bearing (true) Bearing (mag) Surface Threshold Offset Overrun Length
06 141 ft / 43 m 8,563 ft / 2,610 m 40.84° 58.44° Asphalt 0 ft / 0 m 192 ft / 59 m
24 141 ft / 43 m 8,563 ft / 2,610 m 220.83° 238.43° Asphalt 0 ft / 0 m 190 ft / 58 m

Approach Navaids

Runway Type Ident Frequency Range Bearing (true) Bearing (mag) Slope Elevation
06 Localiser ICG 110.30 MHz 18 nm / 33 km 41.62° 59.22° - 1,833 ft / 559 m (AMSL)
06 Glidescope ICG 110.30 MHz 10 nm / 19 km 40.84° 58.44° 3.00° 1,833 ft / 559 m (AMSL)

Popular Alternatives